Time;durP1;ratioP1;P1;durP2;ratioP2;P2;SDS_P1;SDS_P2;PMS_P1;PMS_P2;Temp;Humidity;BMP_temperature;BMP_pressure;BME280_temperature;BME280_humidity;BME280_pressure;Samples;Min_cycle;Max_cycle;Signal;HPM_P1;HPM_P2
2023/04/25 00:01:49;;;;;;;;;7.00;7.00;;;;;;;;119916;1181;25096;-68
2023/04/25 00:04:17;;;;;;;;;7.50;7.50;;;;;;;;119921;1186;25684;-68
2023/04/25 00:06:46;;;;;;;;;7.00;5.67;;;;;;;;119815;1191;25408;-68
2023/04/25 00:09:15;;;;;;;;;8.00;8.00;;;;;;;;119915;1182;24960;-68
2023/04/25 00:11:43;;;;;;;;;5.00;5.00;;;;;;;;119938;1191;24826;-69
2023/04/25 00:14:11;;;;;;;;;8.25;7.50;;;;;;;;119804;1183;25049;-68
2023/04/25 00:16:40;;;;;;;;;9.00;7.50;;;;;;;;119928;1191;25134;-69
2023/04/25 00:19:09;;;;;;;;;7.25;7.00;;;;;;;;119804;1191;25508;-68
2023/04/25 00:21:40;;;;;;;;;8.00;8.00;;;;;;;;119705;1191;25786;-69
2023/04/25 00:24:08;;;;;;;;;8.00;6.00;;;;;;;;119735;1184;25048;-68
2023/04/25 00:26:37;;;;;;;;;8.00;6.33;;;;;;;;119893;1191;24904;-68
2023/04/25 00:29:05;;;;;;;;;7.00;7.00;;;;;;;;119919;1191;25406;-69
2023/04/25 00:31:33;;;;;;;;;8.50;6.50;;;;;;;;119913;1191;25508;-68
2023/04/25 00:34:02;;;;;;;;;6.50;6.25;;;;;;;;119917;1191;24707;-68
2023/04/25 00:36:31;;;;;;;;;7.00;4.50;;;;;;;;119978;1179;25398;-69
2023/04/25 00:38:59;;;;;;;;;5.00;5.00;;;;;;;;119910;1190;24897;-69
2023/04/25 00:41:27;;;;;;;;;8.00;7.00;;;;;;;;119930;1182;24816;-68
2023/04/25 00:43:56;;;;;;;;;7.25;6.75;;;;;;;;119924;1190;25456;-68
2023/04/25 00:46:25;;;;;;;;;7.00;7.00;;;;;;;;119900;1190;25152;-69
2023/04/25 00:48:54;;;;;;;;;6.33;6.00;;;;;;;;119911;1190;25416;-67
2023/04/25 00:51:22;;;;;;;;;6.67;6.67;;;;;;;;119921;1190;24924;-69
2023/04/25 00:53:51;;;;;;;;;6.25;6.25;;;;;;;;119742;1190;25597;-69
2023/04/25 00:56:21;;;;;;;;;4.50;4.50;;;;;;;;119887;1190;25106;-68
2023/04/25 00:58:50;;;;;;;;;8.00;6.33;;;;;;;;119879;1190;24839;-68
2023/04/25 01:01:18;;;;;;;;;5.75;5.25;;;;;;;;119900;1190;25091;-68
2023/04/25 01:03:46;;;;;;;;;7.00;7.00;;;;;;;;119942;1182;25338;-69
2023/04/25 01:06:16;;;;;;;;;9.67;6.00;;;;;;;;119888;1190;25169;-68
2023/04/25 01:08:44;;;;;;;;;8.75;7.25;;;;;;;;119921;1182;25297;-68
2023/04/25 01:11:13;;;;;;;;;6.00;5.00;;;;;;;;119930;1190;25109;-68
2023/04/25 01:13:41;;;;;;;;;6.00;6.00;;;;;;;;119891;1190;25221;-69
2023/04/25 01:16:10;;;;;;;;;6.00;4.33;;;;;;;;119730;1190;25532;-69
2023/04/25 01:18:39;;;;;;;;;6.50;6.50;;;;;;;;119933;1190;25387;-68
2023/04/25 01:21:09;;;;;;;;;6.75;6.75;;;;;;;;119913;1190;24776;-69
2023/04/25 01:23:39;;;;;;;;;7.67;7.00;;;;;;;;119946;1182;25062;-68
2023/04/25 01:26:11;;;;;;;;;8.33;5.00;;;;;;;;119920;1190;24878;-68
2023/04/25 01:28:43;;;;;;;;;7.00;6.00;;;;;;;;119739;1190;26012;-68
2023/04/25 01:31:12;;;;;;;;;5.25;5.25;;;;;;;;119964;1182;25596;-68
2023/04/25 01:33:40;;;;;;;;;6.33;6.33;;;;;;;;119899;1190;24998;-69
2023/04/25 01:36:09;;;;;;;;;7.00;7.00;;;;;;;;119932;1190;24815;-68
2023/04/25 01:38:37;;;;;;;;;7.00;7.00;;;;;;;;119918;1190;25308;-69
2023/04/25 01:41:06;;;;;;;;;7.50;6.00;;;;;;;;119929;1188;25417;-69
2023/04/25 01:43:35;;;;;;;;;9.50;7.50;;;;;;;;119932;1189;26646;-69
2023/04/25 01:46:04;;;;;;;;;5.00;5.00;;;;;;;;119923;1190;25275;-69
2023/04/25 01:48:32;;;;;;;;;8.00;5.50;;;;;;;;119889;1190;25443;-67
2023/04/25 01:51:00;;;;;;;;;7.50;7.50;;;;;;;;119897;1190;25252;-69
2023/04/25 01:53:29;;;;;;;;;8.25;7.25;;;;;;;;119713;1190;25136;-68
2023/04/25 01:55:57;;;;;;;;;7.75;6.50;;;;;;;;119896;1190;25193;-69
2023/04/25 01:58:26;;;;;;;;;4.00;3.33;;;;;;;;119930;1181;25339;-69
2023/04/25 02:00:54;;;;;;;;;7.00;6.00;;;;;;;;119911;1189;25514;-68
2023/04/25 02:03:22;;;;;;;;;9.50;8.00;;;;;;;;119859;1190;25520;-68
2023/04/25 02:05:51;;;;;;;;;5.00;5.00;;;;;;;;119942;1182;25739;-69
2023/04/25 02:08:19;;;;;;;;;7.67;6.00;;;;;;;;119892;1190;24717;-69
2023/04/25 02:10:48;;;;;;;;;7.25;6.75;;;;;;;;119914;1181;24836;-68
2023/04/25 02:13:16;;;;;;;;;9.00;5.00;;;;;;;;119938;1190;25489;-68
2023/04/25 02:15:44;;;;;;;;;9.00;6.00;;;;;;;;119901;1190;25556;-68
2023/04/25 02:18:15;;;;;;;;;7.00;6.33;;;;;;;;119967;1182;25424;-67
2023/04/25 02:20:44;;;;;;;;;10.00;7.33;;;;;;;;119965;1189;24867;-67
2023/04/25 02:23:15;;;;;;;;;7.50;7.50;;;;;;;;120217;1180;25432;-68
2023/04/25 02:25:43;;;;;;;;;7.50;7.00;;;;;;;;120189;1189;25055;-67
2023/04/25 02:28:11;;;;;;;;;7.00;5.67;;;;;;;;120215;1189;24909;-67
2023/04/25 02:30:40;;;;;;;;;8.50;7.00;;;;;;;;120174;1180;25167;-68
2023/04/25 02:33:08;;;;;;;;;7.75;6.75;;;;;;;;119925;1189;24922;-67
2023/04/25 02:35:37;;;;;;;;;6.67;6.67;;;;;;;;119929;1182;24826;-67
2023/04/25 02:38:05;;;;;;;;;4.33;4.33;;;;;;;;119915;1190;25610;-67
2023/04/25 02:40:33;;;;;;;;;7.00;6.00;;;;;;;;119897;1190;25121;-66
2023/04/25 02:43:02;;;;;;;;;5.50;4.50;;;;;;;;119958;1181;25548;-67
2023/04/25 02:45:30;;;;;;;;;7.50;7.50;;;;;;;;119730;1190;24768;-67
2023/04/25 02:47:58;;;;;;;;;7.75;7.00;;;;;;;;119927;1190;25140;-68
2023/04/25 02:50:27;;;;;;;;;9.50;7.00;;;;;;;;119933;1189;25267;-67
2023/04/25 02:52:55;;;;;;;;;7.33;7.33;;;;;;;;119935;1190;25240;-68
2023/04/25 02:55:24;;;;;;;;;9.75;8.25;;;;;;;;119929;1190;25675;-67
2023/04/25 02:57:55;;;;;;;;;6.33;5.33;;;;;;;;119922;1190;25819;-68
2023/04/25 03:00:26;;;;;;;;;6.00;5.67;;;;;;;;119899;1187;24865;-67
2023/04/25 03:02:55;;;;;;;;;7.00;7.00;;;;;;;;119914;1190;25663;-69
2023/04/25 03:05:24;;;;;;;;;6.00;6.00;;;;;;;;119898;1190;25744;-67
2023/04/25 03:07:52;;;;;;;;;9.00;7.33;;;;;;;;119721;1190;25090;-67
2023/04/25 03:10:21;;;;;;;;;6.00;6.00;;;;;;;;119939;1181;26171;-67
2023/04/25 03:12:49;;;;;;;;;7.00;7.00;;;;;;;;119937;1182;24661;-67
2023/04/25 03:15:18;;;;;;;;;10.75;7.00;;;;;;;;119911;1190;24823;-66
2023/04/25 03:17:46;;;;;;;;;7.00;7.00;;;;;;;;119901;1190;25288;-65
2023/04/25 03:20:15;;;;;;;;;11.67;8.00;;;;;;;;119985;1180;24715;-67
2023/04/25 03:22:44;;;;;;;;;8.67;7.00;;;;;;;;120054;1182;24998;-69
2023/04/25 03:25:13;;;;;;;;;6.67;6.67;;;;;;;;119920;1182;24877;-71
2023/04/25 03:27:41;;;;;;;;;7.33;7.33;;;;;;;;119912;1190;25810;-69
2023/04/25 03:30:10;;;;;;;;;10.75;8.00;;;;;;;;119936;1190;25465;-70
2023/04/25 03:32:39;;;;;;;;;5.00;4.25;;;;;;;;119898;1182;25676;-72
2023/04/25 03:35:08;;;;;;;;;13.67;10.67;;;;;;;;119805;1182;25136;-70
2023/04/25 03:37:36;;;;;;;;;10.25;8.50;;;;;;;;119916;1189;24866;-70
2023/04/25 03:40:06;;;;;;;;;11.25;7.50;;;;;;;;119926;1182;24792;-67
2023/04/25 03:42:34;;;;;;;;;14.67;10.00;;;;;;;;119895;1182;25694;-67
2023/04/25 03:45:03;;;;;;;;;10.50;9.75;;;;;;;;119925;1190;25516;-67
2023/04/25 03:47:31;;;;;;;;;9.00;7.00;;;;;;;;119877;1190;25168;-66
2023/04/25 03:50:01;;;;;;;;;9.67;9.33;;;;;;;;119900;1190;25157;-68
2023/04/25 03:52:30;;;;;;;;;10.00;7.00;;;;;;;;119929;1182;25184;-68
2023/04/25 03:54:58;;;;;;;;;6.00;6.00;;;;;;;;119895;1190;24980;-68
2023/04/25 03:57:27;;;;;;;;;10.33;9.00;;;;;;;;119899;1191;25527;-69
2023/04/25 03:59:55;;;;;;;;;11.00;8.75;;;;;;;;119903;1191;24972;-70
2023/04/25 04:02:23;;;;;;;;;12.00;7.25;;;;;;;;119893;1191;24897;-70
2023/04/25 04:04:52;;;;;;;;;8.33;7.00;;;;;;;;119895;1187;24890;-70
2023/04/25 04:07:21;;;;;;;;;8.75;8.50;;;;;;;;119897;1190;25253;-70
2023/04/25 04:09:49;;;;;;;;;7.00;7.00;;;;;;;;119928;1182;24999;-71
2023/04/25 04:12:17;;;;;;;;;9.50;7.25;;;;;;;;119942;1190;25162;-65
2023/04/25 04:14:46;;;;;;;;;11.00;6.50;;;;;;;;119902;1190;24754;-65
2023/04/25 04:17:14;;;;;;;;;11.50;9.50;;;;;;;;119890;1190;25074;-65
2023/04/25 04:19:43;;;;;;;;;14.50;7.25;;;;;;;;119913;1190;24746;-64
2023/04/25 04:22:11;;;;;;;;;9.75;8.25;;;;;;;;119919;1182;25466;-65
2023/04/25 04:24:39;;;;;;;;;8.00;8.00;;;;;;;;119906;1189;25408;-64
2023/04/25 04:27:08;;;;;;;;;8.25;6.00;;;;;;;;119906;1190;24798;-64
2023/04/25 04:29:36;;;;;;;;;8.67;7.00;;;;;;;;119926;1182;25439;-64
2023/04/25 04:32:04;;;;;;;;;9.00;6.75;;;;;;;;119912;1190;25660;-65
2023/04/25 04:34:33;;;;;;;;;9.00;7.50;;;;;;;;119942;1182;25644;-65
2023/04/25 04:37:02;;;;;;;;;8.75;7.00;;;;;;;;119910;1190;25590;-65
2023/04/25 04:39:31;;;;;;;;;6.00;5.33;;;;;;;;119908;1190;25950;-64
2023/04/25 04:42:01;;;;;;;;;13.50;7.75;;;;;;;;119914;1189;25459;-65
2023/04/25 04:44:32;;;;;;;;;9.00;7.67;;;;;;;;119801;1191;25047;-65
2023/04/25 04:47:01;;;;;;;;;10.25;9.00;;;;;;;;119934;1191;25405;-64
2023/04/25 04:49:30;;;;;;;;;9.50;7.00;;;;;;;;119807;1191;25051;-65
2023/04/25 04:51:59;;;;;;;;;8.00;8.00;;;;;;;;119929;1182;25659;-64
2023/04/25 04:54:27;;;;;;;;;8.75;7.75;;;;;;;;119916;1191;24972;-64
2023/04/25 04:56:56;;;;;;;;;9.50;7.00;;;;;;;;119933;1182;24826;-65
2023/04/25 04:59:24;;;;;;;;;9.00;9.00;;;;;;;;119939;1182;25352;-64
2023/04/25 05:01:55;;;;;;;;;9.75;7.75;;;;;;;;119945;1181;24962;-64
2023/04/25 05:04:26;;;;;;;;;10.75;8.25;;;;;;;;119929;1181;25684;-65
2023/04/25 05:06:56;;;;;;;;;9.00;8.00;;;;;;;;119911;1190;24893;-65
2023/04/25 05:09:25;;;;;;;;;10.25;8.00;;;;;;;;119918;1190;24790;-66
2023/04/25 05:11:53;;;;;;;;;10.00;8.00;;;;;;;;119922;1190;24938;-66
2023/04/25 05:14:23;;;;;;;;;11.33;6.67;;;;;;;;119890;1190;25509;-66
2023/04/25 05:16:51;;;;;;;;;9.00;7.00;;;;;;;;119933;1182;25018;-65
2023/04/25 05:19:19;;;;;;;;;8.75;8.00;;;;;;;;119928;1190;24982;-65
2023/04/25 05:21:48;;;;;;;;;9.25;8.00;;;;;;;;119927;1190;25669;-65
2023/04/25 05:24:16;;;;;;;;;9.00;8.00;;;;;;;;119916;1190;24867;-66
2023/04/25 05:26:45;;;;;;;;;9.33;8.00;;;;;;;;119908;1190;25274;-66
2023/04/25 05:29:13;;;;;;;;;8.00;7.50;;;;;;;;119933;1182;25590;-66
2023/04/25 05:31:41;;;;;;;;;7.00;7.00;;;;;;;;119913;1182;25724;-65
2023/04/25 05:34:10;;;;;;;;;4.33;4.33;;;;;;;;119887;1190;25144;-66
2023/04/25 05:36:38;;;;;;;;;8.25;7.00;;;;;;;;119913;1190;25024;-65
2023/04/25 05:39:07;;;;;;;;;9.50;6.75;;;;;;;;119901;1187;25383;-65
2023/04/25 05:41:36;;;;;;;;;11.00;8.00;;;;;;;;119909;1190;25677;-66
2023/04/25 05:44:04;;;;;;;;;6.25;6.00;;;;;;;;119898;1190;25405;-66
2023/04/25 05:46:32;;;;;;;;;8.00;8.00;;;;;;;;119907;1190;25414;-65
2023/04/25 05:49:01;;;;;;;;;10.25;7.25;;;;;;;;119921;1190;25408;-65
2023/04/25 05:51:29;;;;;;;;;6.00;6.00;;;;;;;;119987;1182;25280;-65
2023/04/25 05:53:57;;;;;;;;;7.00;5.75;;;;;;;;119989;1189;24742;-65
2023/04/25 05:56:26;;;;;;;;;7.25;7.25;;;;;;;;119988;1189;24728;-65
2023/04/25 05:58:54;;;;;;;;;8.25;7.50;;;;;;;;120229;1180;25631;-65
2023/04/25 06:01:23;;;;;;;;;8.50;8.50;;;;;;;;119977;1189;25070;-65
2023/04/25 06:03:52;;;;;;;;;12.50;9.25;;;;;;;;120103;1180;25571;-65
2023/04/25 06:06:21;;;;;;;;;8.00;7.50;;;;;;;;119945;1182;25645;-65
2023/04/25 06:08:50;;;;;;;;;9.50;7.25;;;;;;;;119946;1189;24967;-65
2023/04/25 06:11:18;;;;;;;;;8.00;6.33;;;;;;;;119917;1190;24920;-65
2023/04/25 06:13:47;;;;;;;;;11.00;7.00;;;;;;;;119742;1190;25231;-65
2023/04/25 06:16:15;;;;;;;;;7.00;7.00;;;;;;;;119930;1182;24721;-65
2023/04/25 06:18:44;;;;;;;;;8.25;8.25;;;;;;;;119897;1190;25468;-65
2023/04/25 06:21:13;;;;;;;;;7.33;7.33;;;;;;;;119905;1190;25348;-65
2023/04/25 06:23:41;;;;;;;;;10.00;8.67;;;;;;;;119908;1190;25052;-64
2023/04/25 06:26:09;;;;;;;;;9.00;9.00;;;;;;;;119905;1190;25645;-65
2023/04/25 06:28:38;;;;;;;;;10.50;9.25;;;;;;;;119876;1190;25768;-65
2023/04/25 06:31:06;;;;;;;;;7.50;7.50;;;;;;;;119943;1182;25171;-64
2023/04/25 06:33:35;;;;;;;;;8.00;7.00;;;;;;;;119927;1190;24682;-65
2023/04/25 06:36:03;;;;;;;;;8.50;6.00;;;;;;;;119925;1190;25416;-65
2023/04/25 06:38:32;;;;;;;;;9.00;7.50;;;;;;;;119890;1191;25115;-65
2023/04/25 06:41:00;;;;;;;;;6.00;5.00;;;;;;;;119912;1182;25601;-65
2023/04/25 06:43:32;;;;;;;;;6.50;6.00;;;;;;;;119927;1190;25228;-65
2023/04/25 06:46:01;;;;;;;;;8.67;8.00;;;;;;;;119911;1190;25546;-66
2023/04/25 06:48:29;;;;;;;;;8.00;7.00;;;;;;;;119896;1190;25453;-64
2023/04/25 06:50:58;;;;;;;;;9.67;7.00;;;;;;;;119910;1190;25441;-65
2023/04/25 06:53:26;;;;;;;;;7.00;5.67;;;;;;;;119936;1190;25718;-65
2023/04/25 06:55:54;;;;;;;;;7.25;6.25;;;;;;;;119940;1187;25283;-65
2023/04/25 06:58:23;;;;;;;;;6.00;6.00;;;;;;;;119931;1190;24830;-67
2023/04/25 07:00:51;;;;;;;;;7.00;5.00;;;;;;;;119927;1190;24737;-67
2023/04/25 07:03:20;;;;;;;;;4.50;3.50;;;;;;;;119920;1190;25552;-64
2023/04/25 07:05:49;;;;;;;;;9.50;6.00;;;;;;;;119908;1190;24918;-65
2023/04/25 07:08:18;;;;;;;;;6.50;5.75;;;;;;;;119901;1190;24943;-61
2023/04/25 07:10:46;;;;;;;;;8.25;7.25;;;;;;;;119908;1182;24956;-64
2023/04/25 07:13:17;;;;;;;;;9.50;6.00;;;;;;;;119923;1189;25634;-64
2023/04/25 07:15:47;;;;;;;;;10.25;7.25;;;;;;;;119892;1191;25405;-65
2023/04/25 07:18:15;;;;;;;;;7.00;5.00;;;;;;;;119886;1182;24806;-64
2023/04/25 07:20:46;;;;;;;;;10.50;8.50;;;;;;;;119920;1191;24793;-64
2023/04/25 07:23:14;;;;;;;;;6.67;6.00;;;;;;;;119916;1191;25531;-64
2023/04/25 07:25:43;;;;;;;;;9.00;7.33;;;;;;;;119893;1183;25056;-64
2023/04/25 07:28:11;;;;;;;;;9.67;7.00;;;;;;;;119914;1190;24732;-64
2023/04/25 07:30:48;;;;;;;;;8.33;5.33;;;;;;;;119866;1182;24824;-63
2023/04/25 07:33:17;;;;;;;;;7.50;6.00;;;;;;;;119906;1191;25322;-64
2023/04/25 07:35:45;;;;;;;;;8.00;7.67;;;;;;;;119801;1191;25399;-64
2023/04/25 07:38:14;;;;;;;;;10.00;9.00;;;;;;;;119919;1191;24844;-64
2023/04/25 07:40:42;;;;;;;;;9.75;8.25;;;;;;;;119901;1187;25186;-64
2023/04/25 07:43:14;;;;;;;;;8.25;6.50;;;;;;;;119917;1182;25589;-64
2023/04/25 07:45:43;;;;;;;;;11.25;9.25;;;;;;;;119908;1191;25229;-64
2023/04/25 07:48:17;;;;;;;;;11.25;9.75;;;;;;;;119869;1182;25092;-64
2023/04/25 07:50:45;;;;;;;;;12.00;10.00;;;;;;;;119918;1182;24879;-64
2023/04/25 07:53:14;;;;;;;;;12.00;9.00;;;;;;;;119883;1190;25358;-64
2023/04/25 07:55:42;;;;;;;;;12.67;10.00;;;;;;;;119925;1182;24836;-64
2023/04/25 07:58:11;;;;;;;;;11.50;11.00;;;;;;;;119875;1187;25694;-64
2023/04/25 08:00:41;;;;;;;;;12.00;11.50;;;;;;;;119934;1190;25468;-64
2023/04/25 08:03:09;;;;;;;;;11.25;10.25;;;;;;;;119932;1182;25415;-64
2023/04/25 08:05:38;;;;;;;;;13.50;8.50;;;;;;;;119966;1187;25678;-63
2023/04/25 08:08:07;;;;;;;;;12.67;8.00;;;;;;;;120199;1189;25072;-63
2023/04/25 08:10:35;;;;;;;;;10.75;8.00;;;;;;;;120217;1186;24828;-63
2023/04/25 08:13:04;;;;;;;;;6.33;5.33;;;;;;;;120219;1189;24902;-63
2023/04/25 08:15:32;;;;;;;;;12.67;10.33;;;;;;;;120216;1186;24729;-63
2023/04/25 08:18:00;;;;;;;;;7.33;7.00;;;;;;;;119887;1190;25690;-64
2023/04/25 08:20:29;;;;;;;;;9.00;8.67;;;;;;;;119756;1190;24851;-63
2023/04/25 08:22:57;;;;;;;;;11.75;9.50;;;;;;;;119810;1191;24954;-61
2023/04/25 08:25:26;;;;;;;;;11.25;9.25;;;;;;;;119784;1191;25189;-61
2023/04/25 08:27:54;;;;;;;;;9.75;6.00;;;;;;;;119903;1191;24913;-61
2023/04/25 08:30:23;;;;;;;;;9.00;9.00;;;;;;;;119922;1182;25217;-62
2023/04/25 08:32:51;;;;;;;;;7.00;7.00;;;;;;;;119886;1191;25406;-62
2023/04/25 08:35:20;;;;;;;;;8.75;7.75;;;;;;;;119956;1182;25023;-63
2023/04/25 08:37:49;;;;;;;;;9.75;8.00;;;;;;;;119881;1187;25637;-64
2023/04/25 08:40:19;;;;;;;;;11.67;8.00;;;;;;;;119921;1190;25710;-62
2023/04/25 08:42:49;;;;;;;;;8.00;8.00;;;;;;;;119923;1190;25277;-62
2023/04/25 08:45:17;;;;;;;;;6.67;6.33;;;;;;;;119742;1190;25240;-64
2023/04/25 08:47:46;;;;;;;;;6.00;6.00;;;;;;;;119919;1181;24856;-64
2023/04/25 08:50:14;;;;;;;;;6.00;5.25;;;;;;;;119907;1189;24909;-64
2023/04/25 08:52:47;;;;;;;;;9.50;7.25;;;;;;;;119914;1190;25649;-63
2023/04/25 08:55:16;;;;;;;;;9.00;8.25;;;;;;;;119913;1191;24947;-64
2023/04/25 08:57:45;;;;;;;;;5.00;5.00;;;;;;;;119788;1183;25636;-64
2023/04/25 09:00:14;;;;;;;;;8.67;7.67;;;;;;;;119813;1191;25042;-63
2023/04/25 09:02:43;;;;;;;;;11.67;10.00;;;;;;;;119918;1191;25551;-67
2023/04/25 09:05:13;;;;;;;;;11.25;8.25;;;;;;;;119794;1191;25036;-68
2023/04/25 09:07:42;;;;;;;;;12.50;8.00;;;;;;;;119896;1189;25366;-67
2023/04/25 09:10:10;;;;;;;;;13.00;9.00;;;;;;;;119799;1191;25370;-68
2023/04/25 09:12:39;;;;;;;;;6.67;6.00;;;;;;;;119777;1191;25669;-69
2023/04/25 09:15:09;;;;;;;;;11.67;9.00;;;;;;;;119917;1191;24904;-67
2023/04/25 09:17:41;;;;;;;;;10.00;9.00;;;;;;;;119818;1191;25675;-68
2023/04/25 09:20:14;;;;;;;;;15.00;11.67;;;;;;;;119930;1182;25211;-71
2023/04/25 09:22:45;;;;;;;;;10.00;9.33;;;;;;;;119913;1191;25019;-67
2023/04/25 09:25:14;;;;;;;;;14.00;12.00;;;;;;;;119911;1186;25455;-66
2023/04/25 09:27:53;;;;;;;;;13.00;12.00;;;;;;;;119870;1191;25571;-64
2023/04/25 09:30:32;;;;;;;;;11.00;9.00;;;;;;;;119897;1191;24765;-63
2023/04/25 09:33:06;;;;;;;;;14.00;10.00;;;;;;;;119721;1191;25688;-63
2023/04/25 09:35:39;;;;;;;;;13.00;9.00;;;;;;;;119721;1184;24924;-62
2023/04/25 09:38:10;;;;;;;;;12.50;10.75;;;;;;;;119892;1191;25159;-64
2023/04/25 09:40:43;;;;;;;;;16.00;13.00;;;;;;;;119888;1191;25054;-61
2023/04/25 09:43:16;;;;;;;;;16.50;12.50;;;;;;;;119904;1189;25180;-61
2023/04/25 09:45:46;;;;;;;;;10.00;9.00;;;;;;;;119960;1182;25302;-61
2023/04/25 09:48:22;;;;;;;;;11.67;11.67;;;;;;;;119897;1190;25128;-62
2023/04/25 09:51:03;;;;;;;;;14.25;12.00;;;;;;;;119902;1182;25600;-61
2023/04/25 09:53:42;;;;;;;;;14.75;10.50;;;;;;;;119942;1186;25351;-62
2023/04/25 09:56:11;;;;;;;;;11.25;10.75;;;;;;;;119879;1190;25239;-64
2023/04/25 09:58:41;;;;;;;;;14.75;11.75;;;;;;;;119720;1189;25478;-67
2023/04/25 10:01:10;;;;;;;;;15.00;12.00;;;;;;;;119898;1190;25484;-67
2023/04/25 10:03:40;;;;;;;;;15.50;12.75;;;;;;;;119902;1190;25022;-66
2023/04/25 10:06:12;;;;;;;;;15.25;12.50;;;;;;;;119914;1190;24741;-67
2023/04/25 10:08:42;;;;;;;;;15.25;10.00;;;;;;;;119715;1190;24796;-67
2023/04/25 10:11:10;;;;;;;;;16.67;13.00;;;;;;;;119902;1187;25056;-68
2023/04/25 10:13:39;;;;;;;;;16.00;12.00;;;;;;;;119890;1182;24701;-71
2023/04/25 10:16:08;;;;;;;;;7.33;6.00;;;;;;;;119894;1190;25462;-69
2023/04/25 10:18:37;;;;;;;;;10.50;10.25;;;;;;;;120188;1189;25526;-68
2023/04/25 10:21:06;;;;;;;;;10.75;8.00;;;;;;;;120194;1189;24884;-69
2023/04/25 10:23:36;;;;;;;;;14.67;12.00;;;;;;;;120228;1180;25446;-68
2023/04/25 10:26:05;;;;;;;;;12.00;10.00;;;;;;;;119985;1189;25121;-66
2023/04/25 10:29:03;;;;;;;;;14.75;11.00;;;;;;;;120088;1187;25556;-69
2023/04/25 10:31:32;;;;;;;;;12.00;11.00;;;;;;;;119802;1191;24981;-68
2023/04/25 10:34:01;;;;;;;;;15.50;11.50;;;;;;;;119705;1188;24706;-68
2023/04/25 10:36:32;;;;;;;;;12.50;11.25;;;;;;;;119910;1191;25630;-69
2023/04/25 10:39:08;;;;;;;;;16.00;12.00;;;;;;;;119799;1191;25039;-70
2023/04/25 10:42:07;;;;;;;;;13.25;9.75;;;;;;;;119787;1191;25239;-70
2023/04/25 10:44:38;;;;;;;;;12.75;12.75;;;;;;;;119736;1190;25448;-70
2023/04/25 10:47:08;;;;;;;;;11.33;11.00;;;;;;;;119949;1190;25442;-70
2023/04/25 10:49:39;;;;;;;;;13.00;11.50;;;;;;;;119891;1190;24772;-70
2023/04/25 10:52:22;;;;;;;;;15.00;13.25;;;;;;;;119885;1190;24747;-68
2023/04/25 10:54:57;;;;;;;;;10.75;10.75;;;;;;;;119920;1182;25533;-69
2023/04/25 10:57:36;;;;;;;;;11.00;11.00;;;;;;;;119925;1190;25652;-66
2023/04/25 11:00:06;;;;;;;;;11.00;10.25;;;;;;;;119917;1190;25289;-67
2023/04/25 11:02:45;;;;;;;;;15.00;12.50;;;;;;;;119977;1182;25041;-66
2023/04/25 11:05:34;;;;;;;;;14.67;13.67;;;;;;;;119899;1182;25153;-69
2023/04/25 11:08:33;;;;;;;;;12.00;12.00;;;;;;;;119923;1182;25551;-69
2023/04/25 11:11:02;;;;;;;;;10.00;9.33;;;;;;;;119888;1190;25216;-68
2023/04/25 11:13:30;;;;;;;;;13.33;10.33;;;;;;;;119917;1177;24871;-69
2023/04/25 11:15:58;;;;;;;;;12.67;12.00;;;;;;;;119878;1190;25259;-69
2023/04/25 11:18:43;;;;;;;;;9.00;8.00;;;;;;;;119887;1187;25427;-69
2023/04/25 11:21:11;;;;;;;;;11.00;11.00;;;;;;;;119953;1189;25552;-69
2023/04/25 11:23:40;;;;;;;;;13.00;12.33;;;;;;;;119887;1182;25241;-69
2023/04/25 11:26:08;;;;;;;;;14.00;12.00;;;;;;;;119887;1186;25037;-69
2023/04/25 11:28:36;;;;;;;;;12.00;9.25;;;;;;;;119917;1190;24868;-69
2023/04/25 11:31:05;;;;;;;;;14.33;12.00;;;;;;;;119931;1182;25173;-68
2023/04/25 11:33:33;;;;;;;;;12.50;12.50;;;;;;;;119898;1186;24848;-68
2023/04/25 11:36:02;;;;;;;;;11.00;11.00;;;;;;;;120009;1182;25619;-69
2023/04/25 11:38:30;;;;;;;;;12.50;12.50;;;;;;;;119899;1190;24959;-67
2023/04/25 11:40:59;;;;;;;;;12.50;12.50;;;;;;;;119920;1190;25859;-69
2023/04/25 11:43:28;;;;;;;;;10.00;10.00;;;;;;;;119922;1190;24884;-70
2023/04/25 11:45:56;;;;;;;;;17.50;14.50;;;;;;;;119999;1186;24732;-69
2023/04/25 11:48:24;;;;;;;;;14.25;13.50;;;;;;;;119864;1190;24829;-69
2023/04/25 11:50:54;;;;;;;;;14.67;13.33;;;;;;;;119875;1188;25294;-69
2023/04/25 11:53:24;;;;;;;;;11.00;10.00;;;;;;;;120010;1183;25646;-68
2023/04/25 11:55:53;;;;;;;;;14.00;14.00;;;;;;;;119916;1190;25169;-68
2023/04/25 11:58:22;;;;;;;;;19.00;13.00;;;;;;;;119904;1186;25076;-68
2023/04/25 12:00:50;;;;;;;;;17.50;15.00;;;;;;;;119902;1182;25553;-68
2023/04/25 12:03:19;;;;;;;;;12.75;11.25;;;;;;;;119900;1190;24810;-68
2023/04/25 12:05:47;;;;;;;;;16.25;13.00;;;;;;;;119926;1186;24786;-68
2023/04/25 12:08:16;;;;;;;;;16.25;12.75;;;;;;;;119927;1190;25481;-68
2023/04/25 12:10:46;;;;;;;;;14.75;12.00;;;;;;;;119922;1186;25258;-68
2023/04/25 12:13:22;;;;;;;;;8.50;8.00;;;;;;;;119924;1190;25001;-68
2023/04/25 12:15:51;;;;;;;;;11.50;11.00;;;;;;;;119798;1186;25098;-68
2023/04/25 12:18:25;;;;;;;;;10.50;10.50;;;;;;;;119911;1186;25429;-68
2023/04/25 12:20:53;;;;;;;;;13.75;10.50;;;;;;;;119884;1190;24886;-68
2023/04/25 12:23:28;;;;;;;;;7.25;7.25;;;;;;;;119876;1182;25850;-68
2023/04/25 12:25:57;;;;;;;;;12.00;12.00;;;;;;;;119929;1182;25001;-67
2023/04/25 12:28:30;;;;;;;;;13.00;11.50;;;;;;;;119864;1190;25131;-68
2023/04/25 12:31:06;;;;;;;;;11.33;9.67;;;;;;;;119926;1186;25251;-67
2023/04/25 12:33:39;;;;;;;;;12.50;12.50;;;;;;;;119874;1190;25102;-68
2023/04/25 12:36:12;;;;;;;;;12.67;12.67;;;;;;;;119926;1187;25530;-68
2023/04/25 12:38:41;;;;;;;;;13.25;13.00;;;;;;;;119908;1182;24932;-68
2023/04/25 12:41:10;;;;;;;;;12.67;10.33;;;;;;;;119912;1182;24911;-68
2023/04/25 12:43:38;;;;;;;;;13.67;11.67;;;;;;;;119884;1187;25537;-68
2023/04/25 12:46:06;;;;;;;;;13.25;8.50;;;;;;;;119930;1190;25627;-68
2023/04/25 12:48:35;;;;;;;;;10.00;9.00;;;;;;;;119940;1183;24692;-68
2023/04/25 12:51:03;;;;;;;;;14.00;13.00;;;;;;;;119925;1190;24985;-68
2023/04/25 12:53:32;;;;;;;;;10.50;9.25;;;;;;;;119899;1190;25179;-68
2023/04/25 12:56:02;;;;;;;;;11.00;11.00;;;;;;;;119939;1181;25028;-68
2023/04/25 12:58:31;;;;;;;;;13.00;12.00;;;;;;;;119913;1190;25474;-68
2023/04/25 13:00:59;;;;;;;;;11.00;9.75;;;;;;;;119849;1183;25419;-68
2023/04/25 13:03:28;;;;;;;;;11.00;9.67;;;;;;;;119934;1190;24742;-68
2023/04/25 13:05:56;;;;;;;;;15.50;10.50;;;;;;;;119933;1190;25777;-68
2023/04/25 13:08:25;;;;;;;;;10.00;10.00;;;;;;;;119923;1190;25561;-68
2023/04/25 13:10:53;;;;;;;;;12.25;11.25;;;;;;;;119938;1181;25484;-68
2023/04/25 13:13:22;;;;;;;;;11.00;11.00;;;;;;;;119934;1190;25274;-68
2023/04/25 13:15:50;;;;;;;;;12.50;12.50;;;;;;;;119923;1181;25226;-68
2023/04/25 13:18:19;;;;;;;;;16.75;10.00;;;;;;;;119886;1191;25781;-68
2023/04/25 13:20:47;;;;;;;;;13.00;10.00;;;;;;;;119919;1183;25130;-68
2023/04/25 13:23:16;;;;;;;;;14.33;13.33;;;;;;;;119920;1190;25234;-67
2023/04/25 13:25:44;;;;;;;;;12.67;11.00;;;;;;;;119943;1182;25064;-67
2023/04/25 13:28:13;;;;;;;;;12.00;10.00;;;;;;;;119919;1190;25340;-67
2023/04/25 13:30:42;;;;;;;;;8.00;8.00;;;;;;;;119940;1182;25712;-68
2023/04/25 13:33:10;;;;;;;;;14.00;11.00;;;;;;;;119831;1190;25462;-67
2023/04/25 13:35:39;;;;;;;;;11.25;7.25;;;;;;;;119917;1191;25073;-68
2023/04/25 13:38:07;;;;;;;;;15.25;12.00;;;;;;;;119787;1191;25205;-67
2023/04/25 13:40:36;;;;;;;;;14.00;12.00;;;;;;;;119922;1191;25771;-67
2023/04/25 13:43:06;;;;;;;;;11.00;11.00;;;;;;;;119889;1191;25301;-68
2023/04/25 13:45:34;;;;;;;;;12.75;12.00;;;;;;;;119917;1191;25131;-68
2023/04/25 13:48:03;;;;;;;;;13.00;10.00;;;;;;;;119939;1186;24938;-68
2023/04/25 13:50:32;;;;;;;;;9.25;9.25;;;;;;;;119899;1191;25657;-67
2023/04/25 13:53:00;;;;;;;;;9.00;9.00;;;;;;;;119943;1182;24697;-67
2023/04/25 13:55:28;;;;;;;;;12.25;9.50;;;;;;;;119940;1182;25481;-66
2023/04/25 13:57:57;;;;;;;;;14.00;11.00;;;;;;;;119747;1191;26031;-66
2023/04/25 14:00:25;;;;;;;;;11.67;11.67;;;;;;;;119828;1183;26503;-68
2023/04/25 14:02:53;;;;;;;;;12.33;10.33;;;;;;;;120034;1189;25670;-69
2023/04/25 14:05:22;;;;;;;;;13.75;12.50;;;;;;;;120073;1189;25577;-69
2023/04/25 14:07:50;;;;;;;;;9.50;9.50;;;;;;;;119916;1190;25193;-68
2023/04/25 14:10:19;;;;;;;;;13.00;12.25;;;;;;;;119901;1190;24911;-68
2023/04/25 14:12:47;;;;;;;;;14.33;12.33;;;;;;;;119889;1190;25358;-68
2023/04/25 14:15:15;;;;;;;;;13.50;12.50;;;;;;;;119931;1181;25758;-68
2023/04/25 14:17:45;;;;;;;;;12.67;11.67;;;;;;;;119973;1186;24860;-68
2023/04/25 14:20:14;;;;;;;;;14.67;13.00;;;;;;;;119912;1186;24738;-68
2023/04/25 14:22:43;;;;;;;;;16.67;13.67;;;;;;;;119904;1187;25007;-68
2023/04/25 14:25:11;;;;;;;;;12.75;12.50;;;;;;;;119936;1181;25570;-68
2023/04/25 14:27:40;;;;;;;;;15.25;14.25;;;;;;;;119934;1190;24908;-68
2023/04/25 14:30:09;;;;;;;;;13.00;13.00;;;;;;;;119864;1187;25579;-68
2023/04/25 14:32:37;;;;;;;;;11.25;10.25;;;;;;;;119928;1190;25168;-68